sensor_id;sensor_type;location;lat;lon;timestamp;P1;durP1;ratioP1;P2;durP2;ratioP2
78183;SDS011;67442;44.570;18.610;2023-07-29T00:02:21;9.32;;;4.65;;
78183;SDS011;67442;44.570;18.610;2023-07-29T00:04:48;8.02;;;4.82;;
78183;SDS011;67442;44.570;18.610;2023-07-29T00:07:19;7.82;;;4.43;;
78183;SDS011;67442;44.570;18.610;2023-07-29T00:09:47;6.93;;;4.35;;
78183;SDS011;67442;44.570;18.610;2023-07-29T00:12:14;9.38;;;5.10;;
78183;SDS011;67442;44.570;18.610;2023-07-29T00:14:45;8.50;;;4.38;;
78183;SDS011;67442;44.570;18.610;2023-07-29T00:17:12;8.00;;;4.47;;
78183;SDS011;67442;44.570;18.610;2023-07-29T00:19:39;7.55;;;3.92;;
78183;SDS011;67442;44.570;18.610;2023-07-29T00:22:07;6.18;;;4.20;;
78183;SDS011;67442;44.570;18.610;2023-07-29T00:24:39;10.95;;;5.32;;
78183;SDS011;67442;44.570;18.610;2023-07-29T00:27:07;9.77;;;4.50;;
78183;SDS011;67442;44.570;18.610;2023-07-29T00:29:34;7.85;;;4.57;;
78183;SDS011;67442;44.570;18.610;2023-07-29T00:32:01;11.73;;;4.13;;
78183;SDS011;67442;44.570;18.610;2023-07-29T00:34:28;6.82;;;4.32;;
78183;SDS011;67442;44.570;18.610;2023-07-29T00:36:59;8.57;;;4.63;;
78183;SDS011;67442;44.570;18.610;2023-07-29T00:39:26;7.43;;;4.55;;
78183;SDS011;67442;44.570;18.610;2023-07-29T00:41:53;7.80;;;4.75;;
78183;SDS011;67442;44.570;18.610;2023-07-29T00:44:21;7.35;;;4.40;;
78183;SDS011;67442;44.570;18.610;2023-07-29T00:46:49;7.82;;;4.47;;
78183;SDS011;67442;44.570;18.610;2023-07-29T00:49:17;6.32;;;4.10;;
78183;SDS011;67442;44.570;18.610;2023-07-29T00:51:48;9.73;;;4.60;;
78183;SDS011;67442;44.570;18.610;2023-07-29T00:54:15;10.32;;;4.38;;
78183;SDS011;67442;44.570;18.610;2023-07-29T00:56:46;6.95;;;4.28;;
78183;SDS011;67442;44.570;18.610;2023-07-29T00:59:14;8.90;;;4.60;;
78183;SDS011;67442;44.570;18.610;2023-07-29T01:01:41;9.65;;;4.13;;
78183;SDS011;67442;44.570;18.610;2023-07-29T01:04:11;6.50;;;4.47;;
78183;SDS011;67442;44.570;18.610;2023-07-29T01:06:45;6.90;;;4.20;;
78183;SDS011;67442;44.570;18.610;2023-07-29T01:14:30;11.27;;;4.63;;
78183;SDS011;67442;44.570;18.610;2023-07-29T01:17:07;6.10;;;3.97;;
78183;SDS011;67442;44.570;18.610;2023-07-29T01:19:43;5.78;;;4.43;;
78183;SDS011;67442;44.570;18.610;2023-07-29T01:22:32;6.68;;;3.72;;
78183;SDS011;67442;44.570;18.610;2023-07-29T01:25:00;7.95;;;3.80;;
78183;SDS011;67442;44.570;18.610;2023-07-29T01:27:27;7.65;;;3.63;;
78183;SDS011;67442;44.570;18.610;2023-07-29T01:29:55;7.00;;;4.30;;
78183;SDS011;67442;44.570;18.610;2023-07-29T01:35:13;6.22;;;4.32;;
78183;SDS011;67442;44.570;18.610;2023-07-29T01:38:05;6.50;;;3.75;;
78183;SDS011;67442;44.570;18.610;2023-07-29T01:40:35;7.35;;;4.28;;
78183;SDS011;67442;44.570;18.610;2023-07-29T01:43:02;5.95;;;4.13;;
78183;SDS011;67442;44.570;18.610;2023-07-29T01:45:29;5.78;;;3.95;;
78183;SDS011;67442;44.570;18.610;2023-07-29T01:48:01;8.55;;;4.10;;
78183;SDS011;67442;44.570;18.610;2023-07-29T01:50:28;6.07;;;4.22;;
78183;SDS011;67442;44.570;18.610;2023-07-29T01:52:55;6.40;;;3.88;;
78183;SDS011;67442;44.570;18.610;2023-07-29T01:55:22;6.95;;;4.10;;
78183;SDS011;67442;44.570;18.610;2023-07-29T01:57:49;8.48;;;3.85;;
78183;SDS011;67442;44.570;18.610;2023-07-29T02:00:21;7.15;;;4.22;;
78183;SDS011;67442;44.570;18.610;2023-07-29T02:02:48;5.80;;;3.60;;
78183;SDS011;67442;44.570;18.610;2023-07-29T02:05:15;7.20;;;3.78;;
78183;SDS011;67442;44.570;18.610;2023-07-29T02:07:46;5.68;;;3.80;;
78183;SDS011;67442;44.570;18.610;2023-07-29T02:10:14;6.50;;;4.05;;
78183;SDS011;67442;44.570;18.610;2023-07-29T02:12:41;5.93;;;3.95;;
78183;SDS011;67442;44.570;18.610;2023-07-29T02:15:09;6.20;;;3.67;;
78183;SDS011;67442;44.570;18.610;2023-07-29T02:17:36;8.02;;;4.20;;
78183;SDS011;67442;44.570;18.610;2023-07-29T02:20:03;8.13;;;4.28;;
78183;SDS011;67442;44.570;18.610;2023-07-29T02:22:31;5.60;;;3.67;;
78183;SDS011;67442;44.570;18.610;2023-07-29T02:24:58;5.18;;;3.92;;
78183;SDS011;67442;44.570;18.610;2023-07-29T02:27:26;7.68;;;3.45;;
78183;SDS011;67442;44.570;18.610;2023-07-29T02:29:54;5.55;;;3.42;;
78183;SDS011;67442;44.570;18.610;2023-07-29T02:32:21;8.43;;;4.03;;
78183;SDS011;67442;44.570;18.610;2023-07-29T02:34:48;5.47;;;3.70;;
78183;SDS011;67442;44.570;18.610;2023-07-29T02:37:15;7.03;;;3.97;;
78183;SDS011;67442;44.570;18.610;2023-07-29T02:39:43;6.95;;;3.78;;
78183;SDS011;67442;44.570;18.610;2023-07-29T02:42:10;6.63;;;3.55;;
78183;SDS011;67442;44.570;18.610;2023-07-29T02:44:37;5.32;;;3.60;;
78183;SDS011;67442;44.570;18.610;2023-07-29T02:47:06;5.45;;;3.70;;
78183;SDS011;67442;44.570;18.610;2023-07-29T02:49:32;5.85;;;3.60;;
78183;SDS011;67442;44.570;18.610;2023-07-29T02:52:00;6.45;;;3.83;;
78183;SDS011;67442;44.570;18.610;2023-07-29T02:54:27;5.55;;;3.55;;
78183;SDS011;67442;44.570;18.610;2023-07-29T02:56:54;7.05;;;3.38;;
78183;SDS011;67442;44.570;18.610;2023-07-29T02:59:22;5.38;;;3.47;;
78183;SDS011;67442;44.570;18.610;2023-07-29T03:01:49;5.63;;;3.60;;
78183;SDS011;67442;44.570;18.610;2023-07-29T03:04:16;5.65;;;3.53;;
78183;SDS011;67442;44.570;18.610;2023-07-29T03:06:43;7.43;;;3.58;;
78183;SDS011;67442;44.570;18.610;2023-07-29T03:09:13;5.32;;;3.40;;
78183;SDS011;67442;44.570;18.610;2023-07-29T03:11:40;5.63;;;3.40;;
78183;SDS011;67442;44.570;18.610;2023-07-29T03:14:07;5.07;;;3.60;;
78183;SDS011;67442;44.570;18.610;2023-07-29T03:16:34;4.25;;;3.20;;
78183;SDS011;67442;44.570;18.610;2023-07-29T03:19:01;6.28;;;3.50;;
78183;SDS011;67442;44.570;18.610;2023-07-29T03:21:29;6.18;;;3.65;;
78183;SDS011;67442;44.570;18.610;2023-07-29T03:23:56;5.60;;;3.53;;
78183;SDS011;67442;44.570;18.610;2023-07-29T03:26:28;10.18;;;3.58;;
78183;SDS011;67442;44.570;18.610;2023-07-29T03:28:55;7.28;;;3.60;;
78183;SDS011;67442;44.570;18.610;2023-07-29T03:31:26;5.82;;;3.53;;
78183;SDS011;67442;44.570;18.610;2023-07-29T03:33:53;6.28;;;3.88;;
78183;SDS011;67442;44.570;18.610;2023-07-29T03:36:21;4.68;;;3.17;;
78183;SDS011;67442;44.570;18.610;2023-07-29T03:38:51;4.85;;;3.50;;
78183;SDS011;67442;44.570;18.610;2023-07-29T03:41:18;4.07;;;3.13;;
78183;SDS011;67442;44.570;18.610;2023-07-29T03:43:45;5.45;;;3.60;;
78183;SDS011;67442;44.570;18.610;2023-07-29T03:46:12;7.18;;;3.20;;
78183;SDS011;67442;44.570;18.610;2023-07-29T03:48:43;8.73;;;3.47;;
78183;SDS011;67442;44.570;18.610;2023-07-29T03:51:10;4.50;;;3.03;;
78183;SDS011;67442;44.570;18.610;2023-07-29T03:53:38;7.07;;;3.50;;
78183;SDS011;67442;44.570;18.610;2023-07-29T03:56:05;6.72;;;2.78;;
78183;SDS011;67442;44.570;18.610;2023-07-29T03:58:36;4.22;;;3.45;;
78183;SDS011;67442;44.570;18.610;2023-07-29T04:01:04;6.38;;;3.17;;
78183;SDS011;67442;44.570;18.610;2023-07-29T04:03:32;5.38;;;3.20;;
78183;SDS011;67442;44.570;18.610;2023-07-29T04:06:03;5.93;;;3.10;;
78183;SDS011;67442;44.570;18.610;2023-07-29T04:08:30;5.85;;;3.50;;
78183;SDS011;67442;44.570;18.610;2023-07-29T04:11:02;4.30;;;3.13;;
78183;SDS011;67442;44.570;18.610;2023-07-29T04:13:29;5.63;;;2.88;;
78183;SDS011;67442;44.570;18.610;2023-07-29T04:15:57;5.72;;;3.60;;
78183;SDS011;67442;44.570;18.610;2023-07-29T04:18:24;4.85;;;2.83;;
78183;SDS011;67442;44.570;18.610;2023-07-29T04:20:52;6.07;;;3.45;;
78183;SDS011;67442;44.570;18.610;2023-07-29T04:23:19;5.40;;;3.10;;
78183;SDS011;67442;44.570;18.610;2023-07-29T04:25:50;3.50;;;2.72;;
78183;SDS011;67442;44.570;18.610;2023-07-29T04:28:18;5.95;;;3.35;;
78183;SDS011;67442;44.570;18.610;2023-07-29T04:30:45;4.85;;;3.30;;
78183;SDS011;67442;44.570;18.610;2023-07-29T04:33:12;4.88;;;3.40;;
78183;SDS011;67442;44.570;18.610;2023-07-29T04:35:40;4.43;;;2.78;;
78183;SDS011;67442;44.570;18.610;2023-07-29T04:38:07;8.77;;;3.08;;
78183;SDS011;67442;44.570;18.610;2023-07-29T04:40:34;6.85;;;3.38;;
78183;SDS011;67442;44.570;18.610;2023-07-29T04:43:02;5.20;;;2.90;;
78183;SDS011;67442;44.570;18.610;2023-07-29T04:45:30;4.72;;;3.40;;
78183;SDS011;67442;44.570;18.610;2023-07-29T04:48:00;6.70;;;3.65;;
78183;SDS011;67442;44.570;18.610;2023-07-29T04:50:26;7.70;;;3.20;;
78183;SDS011;67442;44.570;18.610;2023-07-29T04:52:53;5.00;;;3.03;;
78183;SDS011;67442;44.570;18.610;2023-07-29T04:55:20;5.18;;;3.50;;
78183;SDS011;67442;44.570;18.610;2023-07-29T04:57:48;5.53;;;2.85;;
78183;SDS011;67442;44.570;18.610;2023-07-29T05:00:15;4.47;;;2.83;;
78183;SDS011;67442;44.570;18.610;2023-07-29T05:02:43;7.30;;;3.33;;
78183;SDS011;67442;44.570;18.610;2023-07-29T05:05:10;6.72;;;3.47;;
78183;SDS011;67442;44.570;18.610;2023-07-29T05:07:37;5.18;;;2.90;;
78183;SDS011;67442;44.570;18.610;2023-07-29T05:10:08;5.13;;;3.03;;
78183;SDS011;67442;44.570;18.610;2023-07-29T05:12:35;5.65;;;2.92;;
78183;SDS011;67442;44.570;18.610;2023-07-29T05:15:03;5.90;;;3.10;;
78183;SDS011;67442;44.570;18.610;2023-07-29T05:17:33;4.30;;;2.65;;
78183;SDS011;67442;44.570;18.610;2023-07-29T05:20:10;5.10;;;3.05;;
78183;SDS011;67442;44.570;18.610;2023-07-29T05:22:40;4.53;;;2.97;;
78183;SDS011;67442;44.570;18.610;2023-07-29T05:25:08;5.80;;;2.72;;
78183;SDS011;67442;44.570;18.610;2023-07-29T05:27:36;6.13;;;2.75;;
78183;SDS011;67442;44.570;18.610;2023-07-29T05:30:03;3.83;;;2.90;;
78183;SDS011;67442;44.570;18.610;2023-07-29T05:32:33;3.97;;;2.83;;
78183;SDS011;67442;44.570;18.610;2023-07-29T05:35:00;6.88;;;3.13;;
78183;SDS011;67442;44.570;18.610;2023-07-29T05:37:27;6.28;;;3.00;;
78183;SDS011;67442;44.570;18.610;2023-07-29T05:39:55;4.15;;;2.90;;
78183;SDS011;67442;44.570;18.610;2023-07-29T05:42:22;5.85;;;2.70;;
78183;SDS011;67442;44.570;18.610;2023-07-29T05:44:49;4.57;;;2.85;;
78183;SDS011;67442;44.570;18.610;2023-07-29T05:47:17;6.53;;;3.30;;
78183;SDS011;67442;44.570;18.610;2023-07-29T05:49:44;5.18;;;2.97;;
78183;SDS011;67442;44.570;18.610;2023-07-29T05:52:11;4.47;;;3.20;;
78183;SDS011;67442;44.570;18.610;2023-07-29T05:54:38;7.07;;;3.42;;
78183;SDS011;67442;44.570;18.610;2023-07-29T05:57:06;5.40;;;3.08;;
78183;SDS011;67442;44.570;18.610;2023-07-29T05:59:33;7.55;;;2.88;;
78183;SDS011;67442;44.570;18.610;2023-07-29T06:02:00;4.80;;;2.75;;
78183;SDS011;67442;44.570;18.610;2023-07-29T06:04:27;7.63;;;3.03;;
78183;SDS011;67442;44.570;18.610;2023-07-29T06:06:57;5.35;;;3.10;;
78183;SDS011;67442;44.570;18.610;2023-07-29T06:09:25;8.38;;;3.63;;
78183;SDS011;67442;44.570;18.610;2023-07-29T06:11:52;6.55;;;3.80;;
78183;SDS011;67442;44.570;18.610;2023-07-29T06:14:19;10.60;;;3.90;;
78183;SDS011;67442;44.570;18.610;2023-07-29T06:16:47;12.05;;;4.57;;
78183;SDS011;67442;44.570;18.610;2023-07-29T06:19:14;11.82;;;3.90;;
78183;SDS011;67442;44.570;18.610;2023-07-29T06:21:41;11.80;;;3.92;;
78183;SDS011;67442;44.570;18.610;2023-07-29T06:24:09;11.27;;;4.05;;
78183;SDS011;67442;44.570;18.610;2023-07-29T06:26:41;17.65;;;4.28;;
78183;SDS011;67442;44.570;18.610;2023-07-29T06:29:11;9.25;;;3.75;;
78183;SDS011;67442;44.570;18.610;2023-07-29T06:31:39;9.93;;;4.20;;
78183;SDS011;67442;44.570;18.610;2023-07-29T06:34:06;7.15;;;3.83;;
78183;SDS011;67442;44.570;18.610;2023-07-29T06:36:33;7.75;;;3.90;;
78183;SDS011;67442;44.570;18.610;2023-07-29T06:39:01;8.73;;;3.80;;
78183;SDS011;67442;44.570;18.610;2023-07-29T06:41:28;36.53;;;7.43;;
78183;SDS011;67442;44.570;18.610;2023-07-29T06:43:56;19.92;;;6.50;;
78183;SDS011;67442;44.570;18.610;2023-07-29T06:46:23;20.13;;;5.30;;
78183;SDS011;67442;44.570;18.610;2023-07-29T06:48:51;19.40;;;5.80;;
78183;SDS011;67442;44.570;18.610;2023-07-29T06:51:18;14.40;;;5.47;;
78183;SDS011;67442;44.570;18.610;2023-07-29T06:53:45;14.05;;;4.68;;
78183;SDS011;67442;44.570;18.610;2023-07-29T06:56:16;12.05;;;4.70;;
78183;SDS011;67442;44.570;18.610;2023-07-29T06:58:44;7.97;;;4.68;;
78183;SDS011;67442;44.570;18.610;2023-07-29T07:01:12;8.00;;;4.63;;
78183;SDS011;67442;44.570;18.610;2023-07-29T07:03:39;9.18;;;5.15;;
78183;SDS011;67442;44.570;18.610;2023-07-29T07:06:06;10.55;;;4.70;;
78183;SDS011;67442;44.570;18.610;2023-07-29T07:08:34;10.10;;;4.68;;
78183;SDS011;67442;44.570;18.610;2023-07-29T07:11:05;8.63;;;5.05;;
78183;SDS011;67442;44.570;18.610;2023-07-29T07:13:32;7.97;;;5.05;;
78183;SDS011;67442;44.570;18.610;2023-07-29T07:16:00;9.82;;;5.05;;
78183;SDS011;67442;44.570;18.610;2023-07-29T07:18:28;6.68;;;4.50;;
78183;SDS011;67442;44.570;18.610;2023-07-29T07:20:55;8.68;;;4.90;;
78183;SDS011;67442;44.570;18.610;2023-07-29T07:23:22;10.82;;;4.90;;
78183;SDS011;67442;44.570;18.610;2023-07-29T07:25:50;9.40;;;4.70;;
78183;SDS011;67442;44.570;18.610;2023-07-29T07:28:17;8.82;;;4.60;;
78183;SDS011;67442;44.570;18.610;2023-07-29T07:30:44;9.70;;;4.70;;
78183;SDS011;67442;44.570;18.610;2023-07-29T07:33:11;10.27;;;5.00;;
78183;SDS011;67442;44.570;18.610;2023-07-29T07:35:38;10.40;;;4.95;;
78183;SDS011;67442;44.570;18.610;2023-07-29T07:38:08;7.38;;;4.72;;
78183;SDS011;67442;44.570;18.610;2023-07-29T07:40:35;8.55;;;4.47;;
78183;SDS011;67442;44.570;18.610;2023-07-29T07:43:06;8.40;;;4.97;;
78183;SDS011;67442;44.570;18.610;2023-07-29T07:45:33;11.05;;;4.78;;
78183;SDS011;67442;44.570;18.610;2023-07-29T07:48:00;10.63;;;4.97;;
78183;SDS011;67442;44.570;18.610;2023-07-29T07:50:29;11.20;;;5.05;;
78183;SDS011;67442;44.570;18.610;2023-07-29T07:52:56;10.82;;;4.63;;
78183;SDS011;67442;44.570;18.610;2023-07-29T07:55:24;9.63;;;5.57;;
78183;SDS011;67442;44.570;18.610;2023-07-29T07:57:55;11.25;;;5.47;;
78183;SDS011;67442;44.570;18.610;2023-07-29T08:00:22;8.73;;;5.18;;
78183;SDS011;67442;44.570;18.610;2023-07-29T08:02:49;12.07;;;5.85;;
78183;SDS011;67442;44.570;18.610;2023-07-29T08:05:17;9.15;;;5.55;;
78183;SDS011;67442;44.570;18.610;2023-07-29T08:07:44;11.20;;;5.75;;
78183;SDS011;67442;44.570;18.610;2023-07-29T08:10:15;12.52;;;5.70;;
78183;SDS011;67442;44.570;18.610;2023-07-29T08:12:43;9.60;;;5.78;;
78183;SDS011;67442;44.570;18.610;2023-07-29T08:15:10;10.02;;;5.90;;
78183;SDS011;67442;44.570;18.610;2023-07-29T08:17:37;10.60;;;5.47;;
78183;SDS011;67442;44.570;18.610;2023-07-29T08:20:04;12.32;;;5.95;;
78183;SDS011;67442;44.570;18.610;2023-07-29T08:22:34;12.57;;;5.57;;
78183;SDS011;67442;44.570;18.610;2023-07-29T08:25:01;10.27;;;5.38;;
78183;SDS011;67442;44.570;18.610;2023-07-29T08:27:29;9.68;;;5.05;;
78183;SDS011;67442;44.570;18.610;2023-07-29T08:29:56;11.88;;;5.45;;
78183;SDS011;67442;44.570;18.610;2023-07-29T08:32:24;11.70;;;4.53;;
78183;SDS011;67442;44.570;18.610;2023-07-29T08:34:55;8.90;;;5.15;;
78183;SDS011;67442;44.570;18.610;2023-07-29T08:37:22;7.05;;;4.57;;
78183;SDS011;67442;44.570;18.610;2023-07-29T08:39:55;7.70;;;4.30;;
78183;SDS011;67442;44.570;18.610;2023-07-29T08:42:22;9.20;;;4.40;;
78183;SDS011;67442;44.570;18.610;2023-07-29T08:44:55;7.85;;;4.55;;
78183;SDS011;67442;44.570;18.610;2023-07-29T08:47:22;11.05;;;4.63;;
78183;SDS011;67442;44.570;18.610;2023-07-29T08:49:48;9.82;;;4.25;;
78183;SDS011;67442;44.570;18.610;2023-07-29T08:52:17;8.38;;;4.25;;
78183;SDS011;67442;44.570;18.610;2023-07-29T08:54:44;7.97;;;4.25;;
78183;SDS011;67442;44.570;18.610;2023-07-29T08:57:11;7.13;;;3.65;;
78183;SDS011;67442;44.570;18.610;2023-07-29T08:59:39;9.60;;;3.88;;
78183;SDS011;67442;44.570;18.610;2023-07-29T09:02:11;8.90;;;3.92;;
78183;SDS011;67442;44.570;18.610;2023-07-29T09:04:38;7.47;;;3.80;;
78183;SDS011;67442;44.570;18.610;2023-07-29T09:07:05;9.13;;;3.72;;
78183;SDS011;67442;44.570;18.610;2023-07-29T09:09:33;6.70;;;3.50;;
78183;SDS011;67442;44.570;18.610;2023-07-29T09:12:01;6.38;;;3.67;;
78183;SDS011;67442;44.570;18.610;2023-07-29T09:14:30;7.05;;;3.28;;
78183;SDS011;67442;44.570;18.610;2023-07-29T09:16:57;10.40;;;3.50;;
78183;SDS011;67442;44.570;18.610;2023-07-29T09:19:25;7.18;;;3.30;;
78183;SDS011;67442;44.570;18.610;2023-07-29T09:21:52;6.45;;;3.30;;
78183;SDS011;67442;44.570;18.610;2023-07-29T09:24:23;5.13;;;3.13;;
78183;SDS011;67442;44.570;18.610;2023-07-29T09:26:51;4.72;;;3.10;;
78183;SDS011;67442;44.570;18.610;2023-07-29T09:29:22;4.95;;;3.05;;
78183;SDS011;67442;44.570;18.610;2023-07-29T09:32:21;7.53;;;2.90;;
78183;SDS011;67442;44.570;18.610;2023-07-29T09:35:07;6.97;;;3.17;;
78183;SDS011;67442;44.570;18.610;2023-07-29T09:37:38;10.40;;;3.50;;
78183;SDS011;67442;44.570;18.610;2023-07-29T09:40:06;5.35;;;2.70;;
78183;SDS011;67442;44.570;18.610;2023-07-29T09:42:47;4.38;;;2.75;;
78183;SDS011;67442;44.570;18.610;2023-07-29T09:45:21;7.28;;;3.67;;
78183;SDS011;67442;44.570;18.610;2023-07-29T09:47:49;6.53;;;2.90;;
78183;SDS011;67442;44.570;18.610;2023-07-29T09:50:17;6.32;;;3.13;;
78183;SDS011;67442;44.570;18.610;2023-07-29T09:52:45;8.27;;;3.33;;
78183;SDS011;67442;44.570;18.610;2023-07-29T09:55:16;6.53;;;3.38;;
78183;SDS011;67442;44.570;18.610;2023-07-29T09:58:01;9.60;;;3.40;;
78183;SDS011;67442;44.570;18.610;2023-07-29T10:00:32;6.90;;;3.15;;
78183;SDS011;67442;44.570;18.610;2023-07-29T10:03:00;7.65;;;3.47;;
78183;SDS011;67442;44.570;18.610;2023-07-29T10:05:28;6.68;;;3.17;;
78183;SDS011;67442;44.570;18.610;2023-07-29T10:07:59;5.13;;;2.78;;
78183;SDS011;67442;44.570;18.610;2023-07-29T10:10:27;6.65;;;2.95;;
78183;SDS011;67442;44.570;18.610;2023-07-29T10:12:55;5.65;;;3.15;;
78183;SDS011;67442;44.570;18.610;2023-07-29T10:15:23;5.20;;;3.05;;
78183;SDS011;67442;44.570;18.610;2023-07-29T10:17:51;5.40;;;3.03;;
78183;SDS011;67442;44.570;18.610;2023-07-29T10:20:23;6.80;;;3.22;;
78183;SDS011;67442;44.570;18.610;2023-07-29T10:22:50;7.30;;;3.30;;
78183;SDS011;67442;44.570;18.610;2023-07-29T10:25:23;9.93;;;3.17;;
78183;SDS011;67442;44.570;18.610;2023-07-29T10:28:03;8.75;;;3.22;;
78183;SDS011;67442;44.570;18.610;2023-07-29T10:30:31;5.72;;;3.00;;
78183;SDS011;67442;44.570;18.610;2023-07-29T10:33:01;4.63;;;2.88;;
78183;SDS011;67442;44.570;18.610;2023-07-29T10:35:30;7.82;;;2.95;;
78183;SDS011;67442;44.570;18.610;2023-07-29T10:38:01;7.22;;;3.72;;
78183;SDS011;67442;44.570;18.610;2023-07-29T10:40:50;6.68;;;3.08;;
78183;SDS011;67442;44.570;18.610;2023-07-29T10:43:25;6.88;;;2.85;;
78183;SDS011;67442;44.570;18.610;2023-07-29T10:46:22;5.95;;;2.95;;
78183;SDS011;67442;44.570;18.610;2023-07-29T10:51:22;9.85;;;3.13;;
78183;SDS011;67442;44.570;18.610;2023-07-29T10:54:01;4.65;;;3.08;;
78183;SDS011;67442;44.570;18.610;2023-07-29T10:56:33;7.05;;;2.72;;
78183;SDS011;67442;44.570;18.610;2023-07-29T11:01:49;7.78;;;3.20;;
78183;SDS011;67442;44.570;18.610;2023-07-29T11:10:00;5.28;;;2.88;;
78183;SDS011;67442;44.570;18.610;2023-07-29T11:20:18;5.50;;;2.80;;
78183;SDS011;67442;44.570;18.610;2023-07-29T11:22:52;4.60;;;2.80;;
78183;SDS011;67442;44.570;18.610;2023-07-29T11:25:20;5.82;;;2.80;;
78183;SDS011;67442;44.570;18.610;2023-07-29T11:27:48;7.28;;;3.03;;
78183;SDS011;67442;44.570;18.610;2023-07-29T11:30:16;4.57;;;2.88;;
78183;SDS011;67442;44.570;18.610;2023-07-29T11:32:44;4.20;;;2.70;;
78183;SDS011;67442;44.570;18.610;2023-07-29T11:35:15;5.00;;;2.63;;
78183;SDS011;67442;44.570;18.610;2023-07-29T11:37:44;4.55;;;2.60;;
78183;SDS011;67442;44.570;18.610;2023-07-29T11:40:14;8.13;;;2.85;;
78183;SDS011;67442;44.570;18.610;2023-07-29T11:42:45;8.60;;;3.03;;
78183;SDS011;67442;44.570;18.610;2023-07-29T11:45:13;7.10;;;3.22;;
78183;SDS011;67442;44.570;18.610;2023-07-29T11:47:40;21.95;;;5.95;;
78183;SDS011;67442;44.570;18.610;2023-07-29T11:50:08;51.53;;;13.52;;
78183;SDS011;67442;44.570;18.610;2023-07-29T11:52:40;48.88;;;11.68;;
78183;SDS011;67442;44.570;18.610;2023-07-29T11:55:08;32.15;;;9.85;;
78183;SDS011;67442;44.570;18.610;2023-07-29T11:57:36;37.80;;;8.82;;
78183;SDS011;67442;44.570;18.610;2023-07-29T12:00:05;33.35;;;9.68;;
78183;SDS011;67442;44.570;18.610;2023-07-29T12:02:36;32.47;;;9.50;;
78183;SDS011;67442;44.570;18.610;2023-07-29T12:05:04;34.45;;;10.05;;
78183;SDS011;67442;44.570;18.610;2023-07-29T12:07:33;31.60;;;9.68;;
78183;SDS011;67442;44.570;18.610;2023-07-29T12:10:00;29.65;;;8.15;;
78183;SDS011;67442;44.570;18.610;2023-07-29T12:12:30;28.75;;;8.55;;
78183;SDS011;67442;44.570;18.610;2023-07-29T12:14:58;22.10;;;8.55;;
78183;SDS011;67442;44.570;18.610;2023-07-29T12:17:29;30.42;;;8.98;;
78183;SDS011;67442;44.570;18.610;2023-07-29T12:20:00;24.65;;;7.68;;
78183;SDS011;67442;44.570;18.610;2023-07-29T12:22:27;30.58;;;8.55;;
78183;SDS011;67442;44.570;18.610;2023-07-29T12:24:55;22.90;;;8.50;;
78183;SDS011;67442;44.570;18.610;2023-07-29T12:27:26;23.80;;;7.80;;
78183;SDS011;67442;44.570;18.610;2023-07-29T12:29:53;19.27;;;7.05;;
78183;SDS011;67442;44.570;18.610;2023-07-29T12:32:20;24.17;;;7.60;;
78183;SDS011;67442;44.570;18.610;2023-07-29T12:34:52;27.20;;;8.30;;
78183;SDS011;67442;44.570;18.610;2023-07-29T12:37:19;16.70;;;6.80;;
78183;SDS011;67442;44.570;18.610;2023-07-29T12:39:56;554.42;;;104.15;;
78183;SDS011;67442;44.570;18.610;2023-07-29T12:42:24;508.52;;;92.95;;
78183;SDS011;67442;44.570;18.610;2023-07-29T12:44:51;460.27;;;78.35;;
78183;SDS011;67442;44.570;18.610;2023-07-29T12:47:18;414.55;;;72.88;;
78183;SDS011;67442;44.570;18.610;2023-07-29T12:49:46;377.20;;;69.15;;
78183;SDS011;67442;44.570;18.610;2023-07-29T12:52:14;310.90;;;62.80;;
78183;SDS011;67442;44.570;18.610;2023-07-29T12:54:41;335.48;;;65.32;;
78183;SDS011;67442;44.570;18.610;2023-07-29T12:57:12;321.15;;;64.30;;
78183;SDS011;67442;44.570;18.610;2023-07-29T12:59:39;311.73;;;61.03;;
78183;SDS011;67442;44.570;18.610;2023-07-29T13:02:06;289.40;;;63.50;;
78183;SDS011;67442;44.570;18.610;2023-07-29T13:04:34;313.42;;;64.07;;
78183;SDS011;67442;44.570;18.610;2023-07-29T13:07:05;271.55;;;56.53;;
78183;SDS011;67442;44.570;18.610;2023-07-29T13:09:33;275.77;;;57.78;;
78183;SDS011;67442;44.570;18.610;2023-07-29T13:11:59;265.08;;;57.17;;
78183;SDS011;67442;44.570;18.610;2023-07-29T13:14:31;267.80;;;53.22;;
78183;SDS011;67442;44.570;18.610;2023-07-29T13:17:02;245.35;;;54.05;;
78183;SDS011;67442;44.570;18.610;2023-07-29T13:19:30;238.30;;;50.65;;
78183;SDS011;67442;44.570;18.610;2023-07-29T13:21:57;245.13;;;53.35;;
78183;SDS011;67442;44.570;18.610;2023-07-29T13:24:25;226.38;;;52.33;;
78183;SDS011;67442;44.570;18.610;2023-07-29T13:26:51;230.52;;;51.95;;
78183;SDS011;67442;44.570;18.610;2023-07-29T13:29:20;224.90;;;50.67;;
78183;SDS011;67442;44.570;18.610;2023-07-29T13:31:47;207.65;;;47.22;;
78183;SDS011;67442;44.570;18.610;2023-07-29T13:34:14;213.07;;;48.20;;
78183;SDS011;67442;44.570;18.610;2023-07-29T13:36:42;194.45;;;46.20;;
78183;SDS011;67442;44.570;18.610;2023-07-29T13:39:09;190.45;;;45.30;;
78183;SDS011;67442;44.570;18.610;2023-07-29T13:41:40;185.88;;;42.92;;
78183;SDS011;67442;44.570;18.610;2023-07-29T13:44:07;189.98;;;43.50;;
78183;SDS011;67442;44.570;18.610;2023-07-29T13:46:34;181.77;;;45.08;;
78183;SDS011;67442;44.570;18.610;2023-07-29T13:49:01;178.82;;;44.13;;
78183;SDS011;67442;44.570;18.610;2023-07-29T13:51:28;160.50;;;42.53;;
78183;SDS011;67442;44.570;18.610;2023-07-29T13:53:56;171.63;;;42.22;;
78183;SDS011;67442;44.570;18.610;2023-07-29T13:56:26;175.25;;;41.15;;
78183;SDS011;67442;44.570;18.610;2023-07-29T13:58:53;159.27;;;40.70;;
78183;SDS011;67442;44.570;18.610;2023-07-29T14:01:20;153.23;;;38.30;;
78183;SDS011;67442;44.570;18.610;2023-07-29T14:03:48;157.77;;;39.22;;
78183;SDS011;67442;44.570;18.610;2023-07-29T14:06:15;157.85;;;40.75;;
78183;SDS011;67442;44.570;18.610;2023-07-29T14:08:43;141.70;;;39.50;;
78183;SDS011;67442;44.570;18.610;2023-07-29T14:11:10;151.45;;;37.65;;
78183;SDS011;67442;44.570;18.610;2023-07-29T14:13:37;150.00;;;38.55;;
78183;SDS011;67442;44.570;18.610;2023-07-29T14:16:05;135.63;;;36.47;;
78183;SDS011;67442;44.570;18.610;2023-07-29T14:18:32;133.25;;;36.35;;
78183;SDS011;67442;44.570;18.610;2023-07-29T14:20:59;129.70;;;36.92;;
78183;SDS011;67442;44.570;18.610;2023-07-29T14:23:27;127.47;;;34.65;;
78183;SDS011;67442;44.570;18.610;2023-07-29T14:25:55;135.73;;;35.97;;
78183;SDS011;67442;44.570;18.610;2023-07-29T14:28:23;135.00;;;35.88;;
78183;SDS011;67442;44.570;18.610;2023-07-29T14:30:50;115.15;;;33.10;;
78183;SDS011;67442;44.570;18.610;2023-07-29T14:33:21;122.30;;;34.47;;
78183;SDS011;67442;44.570;18.610;2023-07-29T14:35:48;125.03;;;33.67;;
78183;SDS011;67442;44.570;18.610;2023-07-29T14:38:15;118.57;;;33.67;;
78183;SDS011;67442;44.570;18.610;2023-07-29T14:40:47;113.07;;;31.30;;
78183;SDS011;67442;44.570;18.610;2023-07-29T14:43:16;107.13;;;29.50;;
78183;SDS011;67442;44.570;18.610;2023-07-29T14:45:47;103.75;;;29.58;;
78183;SDS011;67442;44.570;18.610;2023-07-29T14:48:14;99.05;;;27.23;;
78183;SDS011;67442;44.570;18.610;2023-07-29T14:50:41;94.05;;;28.17;;
78183;SDS011;67442;44.570;18.610;2023-07-29T14:53:09;92.18;;;27.15;;
78183;SDS011;67442;44.570;18.610;2023-07-29T14:55:36;94.80;;;27.13;;
78183;SDS011;67442;44.570;18.610;2023-07-29T14:58:03;97.93;;;27.58;;
78183;SDS011;67442;44.570;18.610;2023-07-29T15:00:31;93.43;;;25.60;;
78183;SDS011;67442;44.570;18.610;2023-07-29T15:02:57;89.82;;;24.52;;